Time,TemperatureF,DewpointF,PressureIn,WindDirection,WindDirectionDegrees,WindSpeedMPH,WindSpeedGustMPH,Humidity,HourlyPrecipIn,Conditions,Clouds,dailyrainin,SoftwareType,DateUTC
2013-08-08 00:13:00,52.8,51.0,20.39,SSE,155,0.0,0.0,92,0.00,,,0.00,weatherlink.com 1.10,2013-08-08 06:13:00,
2013-08-08 00:28:00,52.5,50.0,20.39,SSE,155,0.0,0.0,92,0.00,,,0.00,weatherlink.com 1.10,2013-08-08 06:28:00,
2013-08-08 00:43:00,52.4,50.0,20.38,SSE,155,0.0,1.0,92,0.00,,,0.00,weatherlink.com 1.10,2013-08-08 06:43:00,
2013-08-08 00:58:00,52.3,50.0,20.38,SSE,155,0.0,1.0,92,0.00,,,0.00,weatherlink.com 1.10,2013-08-08 06:58:00,
2013-08-08 01:13:00,52.0,50.0,20.38,SSE,155,0.0,2.0,93,0.00,,,0.00,weatherlink.com 1.10,2013-08-08 07:13:00,
2013-08-08 01:28:00,51.8,50.0,20.38,SSE,155,0.0,0.0,92,0.00,,,0.00,weatherlink.com 1.10,2013-08-08 07:28:00,
2013-08-08 01:43:00,51.5,50.0,20.37,SSE,155,0.0,1.0,93,0.00,,,0.00,weatherlink.com 1.10,2013-08-08 07:43:00,
2013-08-08 01:58:00,51.5,50.0,20.37,SSE,155,0.0,1.0,93,0.00,,,0.00,weatherlink.com 1.10,2013-08-08 07:58:00,
2013-08-08 02:13:00,51.3,49.0,20.37,SSE,155,0.0,3.0,93,0.00,,,0.00,weatherlink.com 1.10,2013-08-08 08:13:00,
2013-08-08 02:28:00,51.1,49.0,20.37,SSE,155,0.0,2.0,93,0.00,,,0.00,weatherlink.com 1.10,2013-08-08 08:28:00,
2013-08-08 02:43:00,50.9,49.0,20.36,SSE,155,0.0,2.0,93,0.00,,,0.00,weatherlink.com 1.10,2013-08-08 08:43:00,
2013-08-08 02:58:00,50.9,49.0,20.36,SSE,155,0.0,0.0,92,0.00,,,0.00,weatherlink.com 1.10,2013-08-08 08:58:00,
2013-08-08 03:13:00,50.4,48.0,20.36,SSE,155,0.0,2.0,92,0.00,,,0.00,weatherlink.com 1.10,2013-08-08 09:13:00,
2013-08-08 03:28:00,50.1,48.0,20.37,SSE,155,0.0,0.0,92,0.00,,,0.00,weatherlink.com 1.10,2013-08-08 09:28:00,
2013-08-08 03:43:00,50.2,49.0,20.37,SSE,155,0.0,1.0,94,0.00,,,0.00,weatherlink.com 1.10,2013-08-08 09:43:00,
2013-08-08 03:58:00,50.2,49.0,20.35,SSE,155,1.0,2.0,94,0.00,,,0.00,weatherlink.com 1.10,2013-08-08 09:58:00,
2013-08-08 04:13:00,50.4,49.0,20.36,SSE,155,1.0,4.0,94,0.00,,,0.00,weatherlink.com 1.10,2013-08-08 10:13:00,
2013-08-08 04:28:00,50.2,48.0,20.36,SSE,155,0.0,0.0,93,0.01,,,0.01,weatherlink.com 1.10,2013-08-08 10:28:00,
2013-08-08 04:43:00,49.9,48.0,20.36,SSE,155,0.0,3.0,93,0.01,,,0.01,weatherlink.com 1.10,2013-08-08 10:43:00,
2013-08-08 04:58:00,49.8,48.0,20.36,SSE,155,0.0,3.0,93,0.01,,,0.01,weatherlink.com 1.10,2013-08-08 10:58:00,
2013-08-08 05:13:00,49.4,47.0,20.38,SSE,155,0.0,0.0,92,0.01,,,0.01,weatherlink.com 1.10,2013-08-08 11:13:00,
2013-08-08 05:29:00,49.2,47.0,20.38,SSE,155,0.0,3.0,93,0.00,,,0.01,weatherlink.com 1.10,2013-08-08 11:29:00,
2013-08-08 05:44:00,49.3,47.0,20.39,SSE,155,0.0,1.0,93,0.00,,,0.01,weatherlink.com 1.10,2013-08-08 11:44:00,
2013-08-08 05:59:00,49.2,47.0,20.39,SSE,155,1.0,2.0,93,0.00,,,0.01,weatherlink.com 1.10,2013-08-08 11:59:00,
2013-08-08 06:14:00,48.8,47.0,20.39,SSE,155,0.0,1.0,93,0.00,,,0.01,weatherlink.com 1.10,2013-08-08 12:14:00,
2013-08-08 06:29:00,48.6,47.0,20.40,SSE,155,0.0,0.0,93,0.00,,,0.01,weatherlink.com 1.10,2013-08-08 12:29:00,
2013-08-08 06:44:00,49.1,48.0,20.40,SSE,155,0.0,3.0,95,0.00,,,0.01,weatherlink.com 1.10,2013-08-08 12:44:00,
2013-08-08 06:59:00,50.4,49.0,20.40,SSE,155,0.0,3.0,94,0.00,,,0.01,weatherlink.com 1.10,2013-08-08 12:59:00,
2013-08-08 07:14:00,51.2,50.0,20.39,SSE,155,0.0,3.0,94,0.00,,,0.01,weatherlink.com 1.10,2013-08-08 13:14:00,
2013-08-08 07:29:00,53.2,52.0,20.39,SSE,155,0.0,2.0,94,0.00,,,0.01,weatherlink.com 1.10,2013-08-08 13:29:00,
2013-08-08 07:44:00,53.4,51.0,20.40,SSE,155,0.0,4.0,91,0.00,,,0.01,weatherlink.com 1.10,2013-08-08 13:44:00,
2013-08-08 07:59:00,53.4,51.0,20.40,SSE,155,0.0,0.0,91,0.00,,,0.01,weatherlink.com 1.10,2013-08-08 13:59:00,
2013-08-08 08:14:00,54.2,51.0,20.41,SSE,155,0.0,0.0,90,0.00,,,0.01,weatherlink.com 1.10,2013-08-08 14:14:00,
2013-08-08 08:29:00,56.9,52.0,20.41,SSE,155,0.0,3.0,84,0.00,,,0.01,weatherlink.com 1.10,2013-08-08 14:29:00,
2013-08-08 08:44:00,58.8,53.0,20.41,SSE,155,2.0,5.0,81,0.00,,,0.01,weatherlink.com 1.10,2013-08-08 14:44:00,
2013-08-08 08:59:00,59.0,53.0,20.42,SSE,155,0.0,5.0,79,0.00,,,0.01,weatherlink.com 1.10,2013-08-08 14:59:00,
2013-08-08 09:14:00,59.8,53.0,20.42,SSE,156,2.0,5.0,77,0.00,,,0.01,weatherlink.com 1.10,2013-08-08 15:14:00,
2013-08-08 09:29:00,59.0,52.0,20.42,SSE,156,0.0,4.0,78,0.00,,,0.01,weatherlink.com 1.10,2013-08-08 15:29:00,
2013-08-08 09:44:00,59.0,53.0,20.42,SSE,157,0.0,3.0,79,0.00,,,0.01,weatherlink.com 1.10,2013-08-08 15:44:00,
2013-08-08 09:59:00,59.0,53.0,20.42,SSE,159,0.0,5.0,79,0.00,,,0.01,weatherlink.com 1.10,2013-08-08 15:59:00,
2013-08-08 10:14:00,59.3,53.0,20.42,SSE,160,0.0,4.0,80,0.00,,,0.01,weatherlink.com 1.10,2013-08-08 16:14:00,
2013-08-08 10:29:00,59.2,52.0,20.42,SSE,164,0.0,5.0,78,0.00,,,0.01,weatherlink.com 1.10,2013-08-08 16:29:00,
2013-08-08 10:44:00,61.1,53.0,20.42,SSE,165,4.0,5.0,75,0.00,,,0.01,weatherlink.com 1.10,2013-08-08 16:44:00,
2013-08-08 10:59:00,62.6,54.0,20.42,South,169,4.0,4.0,74,0.00,,,0.01,weatherlink.com 1.10,2013-08-08 16:59:00,
2013-08-08 11:15:00,63.9,54.0,20.42,South,176,0.0,6.0,70,0.00,,,0.01,weatherlink.com 1.10,2013-08-08 17:15:00,
2013-08-08 11:30:00,65.1,54.0,20.41,South,177,2.0,3.0,67,0.00,,,0.01,weatherlink.com 1.10,2013-08-08 17:30:00,
2013-08-08 11:45:00,65.8,54.0,20.41,South,180,0.0,4.0,66,0.00,,,0.01,weatherlink.com 1.10,2013-08-08 17:45:00,
2013-08-08 12:02:00,65.3,54.0,20.40,SSW,196,7.0,7.0,68,0.00,,,0.01,weatherlink.com 1.10,2013-08-08 18:02:00,
2013-08-08 12:16:00,65.6,53.0,20.40,SSW,207,0.0,7.0,65,0.00,,,0.01,weatherlink.com 1.10,2013-08-08 18:16:00,
2013-08-08 12:32:00,66.5,52.0,20.40,SSW,209,0.0,4.0,60,0.00,,,0.01,weatherlink.com 1.10,2013-08-08 18:32:00,
2013-08-08 12:46:00,67.6,52.0,20.39,SSW,207,0.0,5.0,57,0.00,,,0.01,weatherlink.com 1.10,2013-08-08 18:46:00,
2013-08-08 13:00:00,68.5,52.0,20.39,NW,317,3.0,8.0,56,0.00,,,0.01,weatherlink.com 1.10,2013-08-08 19:00:00,
2013-08-08 13:15:00,69.9,53.0,20.38,West,273,0.0,7.0,55,0.00,,,0.01,weatherlink.com 1.10,2013-08-08 19:15:00,
2013-08-08 13:30:00,70.9,52.0,20.38,NW,311,4.0,6.0,51,0.00,,,0.01,weatherlink.com 1.10,2013-08-08 19:30:00,
2013-08-08 13:45:00,71.2,50.0,20.37,West,273,0.0,7.0,48,0.00,,,0.01,weatherlink.com 1.10,2013-08-08 19:45:00,
2013-08-08 14:00:00,72.3,50.0,20.37,WNW,284,4.0,6.0,45,0.00,,,0.01,weatherlink.com 1.10,2013-08-08 20:00:00,
2013-08-08 14:15:00,71.3,52.0,20.37,NNE,13,3.0,12.0,50,0.00,,,0.01,weatherlink.com 1.10,2013-08-08 20:15:00,
2013-08-08 14:30:00,71.8,51.0,20.37,NNW,334,5.0,11.0,49,0.00,,,0.01,weatherlink.com 1.10,2013-08-08 20:30:00,
2013-08-08 14:45:00,70.9,49.0,20.38,NNW,344,8.0,11.0,46,0.00,,,0.01,weatherlink.com 1.10,2013-08-08 20:45:00,
2013-08-08 15:00:00,73.3,50.0,20.38,NNW,345,5.0,10.0,44,0.00,,,0.01,weatherlink.com 1.10,2013-08-08 21:00:00,
2013-08-08 15:15:00,72.2,50.0,20.38,North,360,3.0,8.0,45,0.00,,,0.01,weatherlink.com 1.10,2013-08-08 21:15:00,
2013-08-08 15:30:00,70.6,49.0,20.38,NNE,28,0.0,10.0,47,0.00,,,0.01,weatherlink.com 1.10,2013-08-08 21:30:00,
2013-08-08 15:46:00,69.5,49.0,20.36,NNE,25,0.0,5.0,48,0.00,,,0.01,weatherlink.com 1.10,2013-08-08 21:46:00,
2013-08-08 16:02:00,69.2,51.0,20.36,ESE,123,8.0,13.0,52,0.00,,,0.01,weatherlink.com 1.10,2013-08-08 22:02:00,
2013-08-08 16:16:00,69.2,49.0,20.37,ESE,115,0.0,9.0,48,0.00,,,0.01,weatherlink.com 1.10,2013-08-08 22:16:00,
2013-08-08 16:32:00,72.1,48.0,20.36,SW,230,0.0,6.0,43,0.00,,,0.01,weatherlink.com 1.10,2013-08-08 22:32:00,
2013-08-08 16:46:00,72.9,50.0,20.35,NE,45,3.0,9.0,45,0.00,,,0.01,weatherlink.com 1.10,2013-08-08 22:46:00,
2013-08-08 17:02:00,70.3,49.0,20.34,ENE,68,0.0,5.0,47,0.00,,,0.01,weatherlink.com 1.10,2013-08-08 23:02:00,
2013-08-08 17:16:00,67.2,53.0,20.35,East,94,6.0,7.0,61,0.01,,,0.02,weatherlink.com 1.10,2013-08-08 23:16:00,
2013-08-08 17:32:00,57.8,52.0,20.37,SE,142,4.0,18.0,80,0.10,,,0.11,weatherlink.com 1.10,2013-08-08 23:32:00,
2013-08-08 17:46:00,57.8,53.0,20.39,SSE,153,4.0,7.0,85,0.10,,,0.11,weatherlink.com 1.10,2013-08-08 23:46:00,
2013-08-08 18:02:00,60.0,56.0,20.39,SSE,161,3.0,7.0,87,0.10,,,0.11,weatherlink.com 1.10,2013-08-09 00:02:00,
2013-08-08 18:16:00,61.7,53.0,20.39,SSE,153,2.0,8.0,74,0.09,,,0.11,weatherlink.com 1.10,2013-08-09 00:16:00,
2013-08-08 18:32:00,61.5,55.0,20.39,SSE,153,0.0,3.0,80,0.00,,,0.11,weatherlink.com 1.10,2013-08-09 00:32:00,
2013-08-08 18:47:00,60.9,54.0,20.38,SSE,153,4.0,5.0,78,0.00,,,0.11,weatherlink.com 1.10,2013-08-09 00:47:00,
2013-08-08 19:17:00,60.4,53.0,20.38,SSE,153,0.0,6.0,76,0.00,,,0.11,weatherlink.com 1.10,2013-08-09 01:17:00,
2013-08-08 20:02:00,56.2,53.0,20.44,NE,52,0.0,4.0,88,0.10,,,0.21,weatherlink.com 1.10,2013-08-09 02:02:00,
2013-08-08 20:17:00,55.6,53.0,20.45,ENE,59,2.0,4.0,90,0.11,,,0.22,weatherlink.com 1.10,2013-08-09 02:17:00,
2013-08-08 20:32:00,55.9,52.0,20.46,NNE,21,0.0,4.0,87,0.11,,,0.22,weatherlink.com 1.10,2013-08-09 02:32:00,
2013-08-08 20:47:00,55.9,51.0,20.47,West,263,2.0,9.0,83,0.05,,,0.22,weatherlink.com 1.10,2013-08-09 02:47:00,
2013-08-08 21:02:00,55.0,51.0,20.47,SW,236,2.0,8.0,87,0.01,,,0.22,weatherlink.com 1.10,2013-08-09 03:02:00,
2013-08-08 21:17:00,54.4,51.0,20.49,SW,223,1.0,6.0,88,0.00,,,0.22,weatherlink.com 1.10,2013-08-09 03:17:00,
2013-08-08 21:32:00,54.2,51.0,20.49,SSW,210,5.0,7.0,89,0.00,,,0.22,weatherlink.com 1.10,2013-08-09 03:32:00,
2013-08-08 21:47:00,54.1,51.0,20.49,SSW,195,2.0,7.0,88,0.00,,,0.22,weatherlink.com 1.10,2013-08-09 03:47:00,
2013-08-08 22:02:00,53.8,51.0,20.50,SSW,195,2.0,6.0,89,0.00,,,0.22,weatherlink.com 1.10,2013-08-09 04:02:00,
2013-08-08 22:17:00,53.3,50.0,20.50,SSW,192,0.0,6.0,88,0.00,,,0.22,weatherlink.com 1.10,2013-08-09 04:17:00,
2013-08-08 22:32:00,53.1,50.0,20.50,SSW,192,0.0,5.0,88,0.00,,,0.22,weatherlink.com 1.10,2013-08-09 04:32:00,
2013-08-08 22:47:00,52.5,49.0,20.49,SSW,192,1.0,2.0,88,0.00,,,0.22,weatherlink.com 1.10,2013-08-09 04:47:00,
2013-08-08 23:02:00,52.1,49.0,20.49,South,191,0.0,0.0,89,0.00,,,0.22,weatherlink.com 1.10,2013-08-09 05:02:00,
2013-08-08 23:17:00,51.7,49.0,20.50,South,191,1.0,3.0,90,0.00,,,0.22,weatherlink.com 1.10,2013-08-09 05:17:00,
2013-08-08 23:32:00,51.4,49.0,20.50,South,191,3.0,3.0,91,0.00,,,0.22,weatherlink.com 1.10,2013-08-09 05:32:00,
2013-08-08 23:47:00,51.0,49.0,20.50,SSW,192,1.0,4.0,91,0.00,,,0.22,weatherlink.com 1.10,2013-08-09 05:47:00,